Time;durP1;ratioP1;P1;durP2;ratioP2;P2;SDS_P1;SDS_P2;PMS_P1;PMS_P2;Temp;Humidity;BMP_temperature;BMP_pressure;BME280_temperature;BME280_humidity;BME280_pressure;Samples;Min_cycle;Max_cycle;Signal;HPM_P1;HPM_P2
2023/01/02 00:01:10;;;;;;;29.27;15.57;;;;;;;10.13;100.00;101109.31;31355296;28;20204;-74
2023/01/02 00:16:11;;;;;;;35.37;15.47;;;;;;;10.14;100.00;101110.88;31375617;28;20041;-74
2023/01/02 00:31:13;;;;;;;34.87;16.57;;;;;;;10.17;100.00;101088.34;31394792;28;20498;-75
2023/01/02 00:46:17;;;;;;;35.47;16.87;;;;;;;9.92;100.00;101099.25;31396197;28;20053;-74
2023/01/02 01:01:19;;;;;;;33.13;17.17;;;;;;;10.07;100.00;101108.16;31382592;28;20052;-75
2023/01/02 01:16:21;;;;;;;37.27;17.47;;;;;;;10.02;100.00;101089.56;31373122;28;20046;-73
2023/01/02 01:31:24;;;;;;;36.63;17.20;;;;;;;9.77;100.00;101103.91;31374305;28;20763;-74
2023/01/02 01:46:42;;;;;;;35.03;17.23;;;;;;;9.78;100.00;101094.63;31365560;28;20150;-75
2023/01/02 02:01:46;;;;;;;36.03;17.30;;;;;;;9.78;100.00;101072.94;31346582;28;20049;-75
2023/01/02 02:17:00;;;;;;;33.53;16.80;;;;;;;9.88;100.00;101083.00;31347169;28;20053;-73
2023/01/02 02:32:22;;;;;;;38.77;16.67;;;;;;;9.29;100.00;101102.72;31383858;28;20513;-75
2023/01/02 02:47:45;;;;;;;31.50;16.73;;;;;;;9.10;100.00;101118.19;31369582;28;20107;-74
2023/01/02 03:02:47;;;;;;;33.83;15.47;;;;;;;9.17;100.00;101129.03;31335014;28;20099;-75
2023/01/02 03:18:15;;;;;;;35.93;18.80;;;;;;;9.09;100.00;101127.47;31371401;28;20040;-75
2023/01/02 03:33:23;;;;;;;43.97;21.10;;;;;;;9.07;100.00;101131.72;31322149;28;20041;-74
2023/01/02 03:48:48;;;;;;;40.50;20.57;;;;;;;9.01;100.00;101130.53;31341973;28;20056;-76
2023/01/02 04:03:59;;;;;;;33.87;17.70;;;;;;;9.07;100.00;101132.47;31346888;28;20064;-75
2023/01/02 04:19:15;;;;;;;31.27;15.50;;;;;;;8.99;100.00;101109.22;31333523;28;20457;-74
2023/01/02 04:34:19;;;;;;;38.63;17.50;;;;;;;8.95;100.00;101088.75;31353519;28;20061;-73
2023/01/02 04:49:21;;;;;;;32.90;16.03;;;;;;;8.84;100.00;101113.84;31407460;28;20076;-72
2023/01/02 05:04:23;;;;;;;31.97;17.63;;;;;;;8.81;100.00;101135.47;31398360;28;20119;-73
2023/01/02 05:19:25;;;;;;;30.07;15.27;;;;;;;9.21;100.00;101154.19;31410624;28;20103;-72
2023/01/02 05:34:27;;;;;;;31.40;14.80;;;;;;;9.38;100.00;101173.59;31385273;28;20086;-72
2023/01/02 05:49:29;;;;;;;26.50;14.13;;;;;;;9.42;100.00;101182.50;31391944;28;20056;-72
2023/01/02 06:04:31;;;;;;;32.63;15.87;;;;;;;9.37;100.00;101196.44;31356389;28;20114;-75
2023/01/02 06:19:33;;;;;;;31.33;18.07;;;;;;;9.74;100.00;101206.94;31400882;28;20041;-73
2023/01/02 06:34:35;;;;;;;23.90;14.50;;;;;;;10.29;100.00;101198.47;31379560;28;20524;-76
2023/01/02 06:49:37;;;;;;;27.13;15.17;;;;;;;12.00;100.00;101256.44;31393739;28;20125;-73
2023/01/02 07:04:39;;;;;;;21.53;12.20;;;;;;;12.80;100.00;101247.94;31384864;28;20475;-73
2023/01/02 07:19:41;;;;;;;60.80;30.17;;;;;;;15.52;100.00;101265.09;31402510;28;20049;-73
2023/01/02 07:34:50;;;;;;;22.37;11.10;;;;;;;16.17;100.00;101259.72;31387117;28;20482;-75
2023/01/02 07:49:52;;;;;;;19.50;11.97;;;;;;;17.44;97.22;101276.72;31348665;28;20053;-76
2023/01/02 08:04:54;;;;;;;19.47;11.73;;;;;;;18.18;89.74;101279.94;31391069;28;20109;-75
2023/01/02 08:19:56;;;;;;;18.30;11.23;;;;;;;18.55;85.15;101283.03;31399291;28;20052;-73
2023/01/02 08:35:07;;;;;;;20.63;11.83;;;;;;;18.93;81.51;101258.16;31398471;28;20521;-73
2023/01/02 08:50:09;;;;;;;19.73;10.80;;;;;;;18.74;79.59;101263.50;31394917;28;20468;-73
2023/01/02 09:05:11;;;;;;;20.13;12.03;;;;;;;18.84;82.24;101247.09;31345673;28;20048;-74
2023/01/02 09:20:13;;;;;;;19.77;11.70;;;;;;;19.17;79.73;101228.94;31388063;28;20061;-75
2023/01/02 09:35:15;;;;;;;24.20;11.33;;;;;;;19.52;76.96;101229.63;31348763;28;20044;-76
2023/01/02 09:50:23;;;;;;;18.23;10.63;;;;;;;19.45;77.81;101215.31;31425806;28;20106;-73
2023/01/02 10:05:51;;;;;;;22.10;10.77;;;;;;;20.10;75.08;101226.88;31378275;28;20107;-72
2023/01/02 10:21:03;;;;;;;18.92;10.90;;;;;;;20.41;73.70;101231.53;31348144;28;20057;-75
2023/01/02 10:36:22;;;;;;;19.50;12.50;;;;;;;20.61;73.18;101229.09;31413952;28;20102;-76
2023/01/02 10:51:25;;;;;;;18.60;11.07;;;;;;;20.78;73.69;101226.78;31373319;28;20057;-74
2023/01/02 11:06:30;;;;;;;16.58;10.10;;;;;;;20.57;74.16;101216.66;31361169;28;20037;-74
2023/01/02 11:21:40;;;;;;;17.33;10.05;;;;;;;19.68;79.66;101214.81;31351207;28;20067;-75
2023/01/02 11:36:43;;;;;;;19.07;9.47;;;;;;;19.18;86.93;101216.72;31376470;28;20057;-75
2023/01/02 11:51:53;;;;;;;15.77;8.90;;;;;;;19.18;85.35;101216.72;31361805;28;20098;-77
2023/01/02 12:07:03;;;;;;;19.73;9.93;;;;;;;18.64;92.13;101234.41;31311593;28;20419;-74
2023/01/02 12:22:21;;;;;;;31.83;15.00;;;;;;;18.26;95.86;101242.75;31294678;28;20083;-76
2023/01/02 12:37:46;;;;;;;18.63;10.33;;;;;;;18.69;93.41;101264.06;31366107;28;20049;-77
2023/01/02 12:53:02;;;;;;;15.00;9.77;;;;;;;17.93;97.17;101275.22;31345672;28;20552;-76
2023/01/02 13:08:31;;;;;;;20.17;11.07;;;;;;;16.43;100.00;101282.56;31331893;28;20045;-76
2023/01/02 13:23:39;;;;;;;21.80;11.57;;;;;;;15.78;100.00;101294.25;31378294;28;20053;-74
2023/01/02 13:38:45;;;;;;;20.70;11.13;;;;;;;15.19;100.00;101286.84;31291487;28;20134;-79
2023/01/02 13:53:51;;;;;;;48.43;23.53;;;;;;;14.77;100.00;101287.69;31299216;28;20091;-74
2023/01/02 14:09:09;;;;;;;23.60;13.37;;;;;;;14.66;100.00;101294.09;31386144;28;20053;-76
2023/01/02 14:24:32;;;;;;;29.53;14.93;;;;;;;14.19;100.00;101315.13;31438732;28;20060;-79
2023/01/02 14:39:35;;;;;;;29.67;14.60;;;;;;;13.76;100.00;101298.59;31354810;28;20053;-80
2023/01/02 14:54:47;;;;;;;29.33;17.80;;;;;;;13.54;100.00;101297.34;31380629;28;20464;-78
2023/01/02 15:09:56;;;;;;;51.23;24.27;;;;;;;13.26;100.00;101293.78;31354446;28;20168;-77
2023/01/02 15:24:57;;;;;;;26.43;14.60;;;;;;;13.00;100.00;101294.44;31346669;28;20057;-76
2023/01/02 15:40:01;;;;;;;27.67;14.50;;;;;;;12.74;100.00;101295.09;31320777;28;20569;-76
2023/01/02 15:55:07;;;;;;;29.80;14.67;;;;;;;12.68;100.00;101283.09;31406670;28;20529;-77
2023/01/02 16:10:20;;;;;;;32.90;15.83;;;;;;;12.60;100.00;101285.09;31357466;28;20048;-76
2023/01/02 16:25:26;;;;;;;34.27;16.03;;;;;;;12.40;100.00;101284.88;31281921;28;20053;-72
2023/01/02 16:40:28;;;;;;;29.90;15.97;;;;;;;12.36;100.00;101280.66;31263185;28;20061;-72
2023/01/02 16:55:53;;;;;;;28.37;14.63;;;;;;;12.35;100.00;101290.75;31380359;28;20085;-89
2023/01/02 17:10:57;;;;;;;32.27;15.73;;;;;;;12.53;100.00;101302.28;31395071;28;20057;-89
2023/01/02 17:26:00;;;;;;;33.83;15.57;;;;;;;12.33;100.00;101309.44;31406930;28;20051;-73
2023/01/02 17:41:02;;;;;;;46.00;19.57;;;;;;;12.31;100.00;101303.63;31396546;28;20432;-73
2023/01/02 17:56:05;;;;;;;37.10;16.33;;;;;;;12.14;100.00;101291.69;31385270;28;20482;-78
2023/01/02 18:11:23;;;;;;;38.40;18.27;;;;;;;12.17;100.00;101279.25;31415191;28;20101;-73
2023/01/02 18:26:26;;;;;;;43.10;20.60;;;;;;;11.99;100.00;101284.03;31362708;28;20049;-72
2023/01/02 18:41:30;;;;;;;37.23;16.43;;;;;;;11.72;100.00;101279.13;31335281;28;20056;-74
2023/01/02 18:56:34;;;;;;;32.87;16.10;;;;;;;11.62;100.00;101260.91;31368485;28;20050;-72
2023/01/02 19:26:58;;;;;;;39.03;15.27;;;;;;;11.09;100.00;101270.09;31336324;28;20064;-78
2023/01/02 19:42:19;;;;;;;34.83;16.00;;;;;;;11.43;100.00;101275.00;31453123;28;20068;-85
2023/01/02 19:57:22;;;;;;;31.30;14.80;;;;;;;11.22;100.00;101264.97;31337800;28;20044;-80
2023/01/02 20:12:32;;;;;;;31.27;15.03;;;;;;;10.91;100.00;101269.34;31326996;28;20095;-80
2023/01/02 20:27:35;;;;;;;32.03;15.37;;;;;;;10.37;100.00;101274.09;31402939;28;20128;-79
2023/01/02 20:42:38;;;;;;;40.30;21.13;;;;;;;10.21;100.00;101260.09;31413766;28;20506;-80
2023/01/02 20:57:39;;;;;;;35.03;17.30;;;;;;;10.31;100.00;101250.44;31393407;28;20044;-82
2023/01/02 21:28:11;;;;;;;33.67;14.40;;;;;;;10.48;100.00;101246.91;31394752;28;20083;-85
2023/01/02 21:43:14;;;;;;;29.83;14.83;;;;;;;10.18;100.00;101242.63;31380646;28;20072;-78
2023/01/02 21:58:16;;;;;;;24.67;14.13;;;;;;;10.16;100.00;101217.03;31399129;28;20068;-89
2023/01/02 22:13:18;;;;;;;31.27;14.93;;;;;;;10.23;100.00;101219.78;31421827;28;20052;-73
2023/01/02 22:28:20;;;;;;;23.93;12.53;;;;;;;10.19;100.00;101216.31;31380594;28;20079;-75
2023/01/02 22:43:23;;;;;;;31.27;14.37;;;;;;;10.07;100.00;101197.69;31363986;28;20095;-74
2023/01/02 22:58:25;;;;;;;51.03;18.07;;;;;;;9.44;100.00;101193.75;31362906;28;20615;-74
2023/01/02 23:13:27;;;;;;;44.67;18.63;;;;;;;9.11;100.00;101176.63;31358865;28;20056;-74
2023/01/02 23:28:29;;;;;;;28.60;14.03;;;;;;;8.86;100.00;101165.69;31372866;28;20056;-75
2023/01/02 23:43:51;;;;;;;28.50;12.70;;;;;;;8.50;100.00;101170.13;31339216;28;20084;-74
2023/01/02 23:58:55;;;;;;;23.33;10.97;;;;;;;8.34;100.00;101156.13;31387489;28;20098;-74
